createdAt,value
2018-06-30T00:00:39.061Z,6.50
2018-06-30T00:03:07.620Z,6.47
2018-06-30T00:05:36.142Z,7.07
2018-06-30T00:08:04.780Z,7.77
2018-06-30T00:10:33.375Z,7.70
2018-06-30T00:13:02.292Z,6.87
2018-06-30T00:15:30.829Z,6.58
2018-06-30T00:17:59.459Z,6.80
2018-06-30T00:20:28.005Z,7.00
2018-06-30T00:22:56.605Z,7.00
2018-06-30T00:25:25.169Z,6.97
2018-06-30T00:27:55.724Z,7.30
2018-06-30T00:30:25.328Z,6.77
2018-06-30T00:32:54.613Z,6.33
2018-06-30T00:35:23.212Z,6.83
2018-06-30T00:37:51.808Z,6.70
2018-06-30T00:40:20.377Z,6.63
2018-06-30T00:42:48.920Z,6.57
2018-06-30T00:45:17.437Z,7.10
2018-06-30T00:47:46.522Z,7.22
2018-06-30T00:50:15.042Z,6.93
2018-06-30T00:52:43.580Z,6.93
2018-06-30T00:55:12.147Z,6.50
2018-06-30T00:57:40.701Z,7.30
2018-06-30T01:00:09.372Z,6.93
2018-06-30T01:02:37.913Z,7.50
2018-06-30T01:05:06.465Z,5.95
2018-06-30T01:07:35.060Z,7.70
2018-06-30T01:10:03.654Z,5.97
2018-06-30T01:12:32.212Z,7.08
2018-06-30T01:15:00.725Z,7.50
2018-06-30T01:17:29.276Z,6.28
2018-06-30T01:19:58.049Z,6.20
2018-06-30T01:22:26.614Z,6.67
2018-06-30T01:24:55.116Z,6.80
2018-06-30T01:27:23.636Z,6.53
2018-06-30T01:29:52.188Z,6.20
2018-06-30T01:32:20.698Z,5.80
2018-06-30T01:34:49.232Z,6.40
2018-06-30T01:37:17.761Z,6.33
2018-06-30T01:39:46.653Z,6.47
2018-06-30T01:42:15.188Z,5.80
2018-06-30T01:44:45.892Z,5.67
2018-06-30T01:47:14.412Z,5.87
2018-06-30T01:49:42.992Z,6.10
2018-06-30T01:52:11.508Z,6.70
2018-06-30T01:54:40.060Z,6.57
2018-06-30T01:57:08.592Z,6.80
2018-06-30T01:59:37.531Z,6.20
2018-06-30T02:02:06.080Z,5.70
2018-06-30T02:04:34.639Z,6.30
2018-06-30T02:07:03.164Z,5.50
2018-06-30T02:09:31.752Z,5.53
2018-06-30T02:12:00.296Z,5.20
2018-06-30T02:14:28.879Z,5.83
2018-06-30T02:16:57.416Z,5.72
2018-06-30T02:19:25.996Z,5.23
2018-06-30T02:21:54.658Z,6.07
2018-06-30T02:24:24.225Z,5.43
2018-06-30T02:26:53.249Z,5.90
2018-06-30T02:29:22.156Z,5.10
2018-06-30T02:31:50.668Z,5.47
2018-06-30T02:34:19.232Z,5.57
2018-06-30T02:36:48.520Z,5.58
2018-06-30T02:39:17.099Z,4.87
2018-06-30T02:41:45.641Z,4.80
2018-06-30T02:44:14.316Z,5.07
2018-06-30T02:46:42.844Z,4.50
2018-06-30T02:49:11.385Z,4.63
2018-06-30T02:51:39.905Z,4.70
2018-06-30T02:54:08.458Z,4.45
2018-06-30T02:56:36.970Z,4.90
2018-06-30T02:59:05.517Z,3.93
2018-06-30T03:01:34.031Z,4.63
2018-06-30T03:04:02.600Z,4.67
2018-06-30T03:06:31.108Z,5.20
2018-06-30T03:08:59.941Z,5.80
2018-06-30T03:11:28.469Z,5.47
2018-06-30T03:13:57.026Z,5.57
2018-06-30T03:16:25.555Z,4.75
2018-06-30T03:18:54.060Z,5.90
2018-06-30T03:21:22.608Z,5.67
2018-06-30T03:23:51.126Z,5.50
2018-06-30T03:26:19.673Z,4.87
2018-06-30T03:28:48.665Z,4.60
2018-06-30T03:31:17.483Z,5.20
2018-06-30T03:33:45.992Z,4.70
2018-06-30T03:36:14.544Z,4.90
2018-06-30T03:38:43.061Z,5.40
2018-06-30T03:41:11.629Z,4.60
2018-06-30T03:43:40.141Z,5.07
2018-06-30T03:46:08.728Z,5.08
2018-06-30T03:48:37.215Z,4.80
2018-06-30T03:51:06.027Z,4.55
2018-06-30T03:53:34.529Z,4.97
2018-06-30T03:56:03.152Z,5.27
2018-06-30T03:58:31.668Z,5.07
2018-06-30T04:01:00.218Z,4.80
2018-06-30T04:03:28.799Z,5.20
2018-06-30T04:05:57.340Z,4.60
2018-06-30T04:08:25.889Z,5.00
2018-06-30T04:10:54.436Z,5.60
2018-06-30T04:13:22.949Z,4.67
2018-06-30T04:15:51.504Z,4.50
2018-06-30T04:18:20.015Z,4.33
2018-06-30T04:20:48.951Z,4.23
2018-06-30T04:23:17.461Z,4.63
2018-06-30T04:25:46.005Z,4.70
2018-06-30T04:28:14.557Z,4.97
2018-06-30T04:30:43.093Z,4.63
2018-06-30T04:33:11.613Z,4.33
2018-06-30T04:35:40.196Z,4.20
2018-06-30T04:38:08.780Z,3.87
2018-06-30T04:40:37.345Z,3.70
2018-06-30T04:43:05.928Z,4.33
2018-06-30T04:45:34.465Z,4.40
2018-06-30T04:48:03.004Z,4.70
2018-06-30T04:50:31.585Z,4.60
2018-06-30T04:53:00.089Z,4.95
2018-06-30T04:55:28.627Z,4.10
2018-06-30T04:57:57.149Z,4.17
2018-06-30T05:00:25.707Z,4.30
2018-06-30T05:02:54.517Z,4.65
2018-06-30T05:05:23.053Z,4.07
2018-06-30T05:07:51.648Z,4.80
2018-06-30T05:10:20.152Z,4.40
2018-06-30T05:12:49.134Z,4.17
2018-06-30T05:15:17.625Z,4.07
2018-06-30T05:17:46.244Z,4.37
2018-06-30T05:20:14.748Z,3.77
2018-06-30T05:22:43.307Z,4.10
2018-06-30T05:25:11.812Z,3.53
2018-06-30T05:27:40.349Z,4.13
2018-06-30T05:30:08.916Z,4.00
2018-06-30T05:32:37.468Z,4.07
2018-06-30T05:35:06.004Z,4.03
2018-06-30T05:37:34.544Z,3.47
2018-06-30T05:40:03.170Z,3.70
2018-06-30T05:42:31.710Z,3.80
2018-06-30T05:45:00.217Z,3.37
2018-06-30T05:47:28.772Z,3.33
2018-06-30T05:49:57.289Z,3.80
2018-06-30T05:52:25.820Z,3.50
2018-06-30T05:54:54.484Z,3.20
2018-06-30T05:57:23.037Z,3.67
2018-06-30T05:59:51.568Z,3.90
2018-06-30T06:02:20.137Z,3.30
2018-06-30T06:04:49.424Z,3.90
2018-06-30T06:07:18.098Z,3.60
2018-06-30T06:09:46.644Z,3.50
2018-06-30T06:12:15.523Z,3.60
2018-06-30T06:14:44.037Z,3.20
2018-06-30T06:17:12.586Z,2.80
2018-06-30T06:19:41.100Z,3.03
2018-06-30T06:22:09.685Z,2.80
2018-06-30T06:24:38.272Z,3.20
2018-06-30T06:27:06.827Z,3.20
2018-06-30T06:29:35.348Z,2.87
2018-06-30T06:32:03.896Z,2.67
2018-06-30T06:34:32.433Z,2.87
2018-06-30T06:37:00.996Z,2.90
2018-06-30T06:39:29.520Z,2.80
2018-06-30T06:41:58.157Z,2.80
2018-06-30T06:44:26.683Z,2.80
2018-06-30T06:46:55.296Z,3.13
2018-06-30T06:49:25.831Z,2.55
2018-06-30T06:51:54.472Z,3.07
2018-06-30T06:54:23.084Z,2.93
2018-06-30T06:56:51.720Z,2.77
2018-06-30T06:59:20.584Z,3.13
2018-06-30T07:01:49.492Z,3.00
2018-06-30T07:04:18.066Z,3.00
2018-06-30T07:06:46.592Z,3.00
2018-06-30T07:09:15.181Z,2.70
2018-06-30T07:11:43.717Z,2.70
2018-06-30T07:14:12.276Z,2.40
2018-06-30T07:16:40.788Z,2.93
2018-06-30T07:19:09.390Z,2.67
2018-06-30T07:21:37.908Z,2.80
2018-06-30T07:24:13.076Z,2.93
2018-06-30T07:26:41.596Z,2.90
2018-06-30T07:29:10.180Z,2.60
2018-06-30T07:31:38.718Z,2.70
2018-06-30T07:34:07.277Z,2.80
2018-06-30T07:36:35.809Z,3.00
2018-06-30T07:39:06.868Z,2.73
2018-06-30T07:41:35.389Z,2.60
2018-06-30T07:44:04.240Z,2.58
2018-06-30T07:46:32.884Z,2.63
2018-06-30T07:49:02.208Z,2.60
2018-06-30T07:51:30.792Z,2.90
2018-06-30T07:53:59.867Z,2.57
2018-06-30T07:56:28.296Z,2.70
2018-06-30T07:58:56.881Z,2.50
2018-06-30T08:01:25.408Z,2.80
2018-06-30T08:03:54.138Z,2.97
2018-06-30T08:06:22.741Z,2.80
2018-06-30T08:08:52.684Z,2.77
2018-06-30T08:11:22.020Z,2.87
2018-06-30T08:13:56.383Z,3.00
2018-06-30T08:16:31.984Z,3.00
2018-06-30T08:19:01.879Z,2.77
2018-06-30T08:21:32.506Z,3.20
2018-06-30T08:24:05.852Z,3.00
2018-06-30T08:26:36.328Z,3.10
2018-06-30T08:29:06.250Z,3.00
2018-06-30T08:31:39.411Z,2.70
2018-06-30T08:34:08.021Z,2.97
2018-06-30T08:36:42.919Z,2.80
2018-06-30T08:39:17.615Z,2.70
2018-06-30T08:41:49.757Z,2.80
2018-06-30T08:44:22.725Z,2.70
2018-06-30T08:46:57.294Z,2.70
2018-06-30T08:49:30.821Z,2.63
2018-06-30T08:52:05.261Z,3.00
2018-06-30T08:54:34.036Z,3.15
2018-06-30T08:57:11.164Z,3.40
2018-06-30T08:59:46.927Z,3.27
2018-06-30T09:02:19.854Z,3.00
2018-06-30T09:04:49.791Z,3.20
2018-06-30T09:07:24.265Z,3.00
2018-06-30T09:09:56.469Z,2.97
2018-06-30T09:12:28.005Z,3.00
2018-06-30T09:14:57.300Z,2.83
2018-06-30T09:17:31.395Z,2.93
2018-06-30T09:20:04.528Z,2.77
2018-06-30T09:22:33.935Z,3.10
2018-06-30T09:25:05.743Z,2.60
2018-06-30T09:27:36.357Z,3.25
2018-06-30T09:30:08.644Z,2.97
2018-06-30T09:32:38.989Z,2.40
2018-06-30T09:35:09.192Z,2.93
2018-06-30T09:37:38.054Z,2.67
2018-06-30T09:40:08.229Z,2.67
2018-06-30T09:42:38.412Z,2.57
2018-06-30T09:45:08.673Z,2.90
2018-06-30T09:47:41.953Z,2.67
2018-06-30T09:50:14.207Z,2.50
2018-06-30T09:52:50.164Z,3.07
2018-06-30T09:55:21.841Z,2.67
2018-06-30T09:57:51.021Z,3.27
2018-06-30T10:00:29.171Z,2.77
2018-06-30T10:03:00.860Z,2.80
2018-06-30T10:05:34.268Z,2.60
2018-06-30T10:08:08.327Z,2.87
2018-06-30T10:10:40.737Z,2.70
2018-06-30T10:13:10.756Z,3.00
2018-06-30T10:15:44.518Z,3.00
2018-06-30T10:18:13.225Z,2.70
2018-06-30T10:20:48.318Z,2.80
2018-06-30T10:23:23.690Z,2.40
2018-06-30T10:25:56.647Z,3.10
2018-06-30T10:28:28.587Z,2.43
2018-06-30T10:31:01.783Z,2.95
2018-06-30T10:33:38.064Z,2.60
2018-06-30T10:36:10.407Z,2.67
2018-06-30T10:38:40.184Z,2.80
2018-06-30T10:41:12.441Z,2.30
2018-06-30T10:43:45.164Z,2.17
2018-06-30T10:46:16.361Z,2.10
2018-06-30T10:48:46.989Z,2.60
2018-06-30T10:51:17.899Z,2.70
2018-06-30T10:53:52.504Z,2.47
2018-06-30T10:56:25.196Z,2.60
2018-06-30T10:58:57.665Z,2.77
2018-06-30T11:01:27.012Z,2.80
2018-06-30T11:04:01.949Z,2.40
2018-06-30T11:06:31.456Z,2.25
2018-06-30T11:09:01.385Z,2.60
2018-06-30T11:11:33.857Z,2.58
2018-06-30T11:14:07.710Z,2.40
2018-06-30T11:16:38.465Z,2.00
2018-06-30T11:19:14.417Z,2.30
2018-06-30T11:21:50.062Z,2.10
2018-06-30T11:24:24.643Z,2.57
2018-06-30T11:26:59.849Z,2.60
2018-06-30T11:29:29.337Z,2.50
2018-06-30T11:31:58.725Z,2.50
2018-06-30T11:34:28.741Z,2.42
2018-06-30T11:37:06.485Z,2.47
2018-06-30T11:39:43.070Z,2.83
2018-06-30T11:42:19.197Z,2.23
2018-06-30T11:44:58.245Z,2.60
2018-06-30T11:47:35.211Z,2.47
2018-06-30T11:50:14.476Z,2.60
2018-06-30T11:52:50.418Z,2.40
2018-06-30T11:55:28.032Z,2.60
2018-06-30T11:58:02.893Z,2.27
2018-06-30T12:00:38.828Z,2.30
2018-06-30T12:03:08.369Z,3.03
2018-06-30T12:05:43.965Z,2.47
2018-06-30T12:08:15.581Z,2.70
2018-06-30T12:10:45.105Z,2.20
2018-06-30T12:13:20.225Z,2.50
2018-06-30T12:15:59.039Z,2.70
2018-06-30T12:18:31.576Z,2.80
2018-06-30T12:21:00.125Z,2.50
2018-06-30T12:23:29.888Z,2.43
2018-06-30T12:25:59.915Z,2.40
2018-06-30T12:28:28.736Z,2.72
2018-06-30T12:30:57.420Z,2.73
2018-06-30T12:33:26.300Z,2.23
2018-06-30T12:35:54.820Z,2.57
2018-06-30T12:38:24.876Z,2.20
2018-06-30T12:40:53.839Z,2.40
2018-06-30T12:43:22.585Z,2.60
2018-06-30T12:45:51.100Z,2.60
2018-06-30T12:48:19.644Z,2.70
2018-06-30T12:50:48.172Z,2.77
2018-06-30T12:53:16.722Z,2.50
2018-06-30T12:55:45.253Z,2.60
2018-06-30T12:58:13.849Z,2.57
2018-06-30T13:00:42.779Z,2.50
2018-06-30T13:03:11.408Z,2.80
2018-06-30T13:05:40.476Z,2.70
2018-06-30T13:08:09.125Z,2.50
2018-06-30T13:10:37.929Z,2.53
2018-06-30T13:13:06.506Z,2.60
2018-06-30T13:15:36.430Z,2.40
2018-06-30T13:18:05.577Z,2.43
2018-06-30T13:20:34.144Z,2.70
2018-06-30T13:23:02.872Z,2.80
2018-06-30T13:25:31.441Z,2.60
2018-06-30T13:28:00.609Z,2.60
2018-06-30T13:30:29.136Z,2.62
2018-06-30T13:32:58.068Z,3.00
2018-06-30T13:35:26.877Z,2.93
2018-06-30T13:37:55.529Z,2.47
2018-06-30T13:40:24.352Z,2.47
2018-06-30T13:42:54.016Z,2.30
2018-06-30T13:45:22.752Z,2.25
2018-06-30T13:47:51.288Z,3.00
2018-06-30T13:50:20.157Z,2.90
2018-06-30T13:52:49.917Z,2.37
2018-06-30T13:55:19.402Z,2.63
2018-06-30T13:57:47.949Z,2.90
2018-06-30T14:00:18.949Z,2.67
2018-06-30T14:02:47.677Z,2.53
2018-06-30T14:05:17.308Z,2.60
2018-06-30T14:07:46.013Z,2.90
2018-06-30T14:10:15.505Z,2.93
2018-06-30T14:12:45.711Z,2.80
2018-06-30T14:15:14.727Z,2.60
2018-06-30T14:17:43.293Z,2.60
2018-06-30T14:20:11.880Z,2.70
2018-06-30T14:22:40.420Z,2.67
2018-06-30T14:25:09.041Z,2.90
2018-06-30T14:27:37.583Z,2.53
2018-06-30T14:30:08.763Z,2.50
2018-06-30T14:32:37.280Z,2.70
2018-06-30T14:35:05.969Z,3.00
2018-06-30T14:37:34.552Z,2.93
2018-06-30T14:40:03.125Z,2.67
2018-06-30T14:42:31.719Z,2.70
2018-06-30T14:45:00.272Z,2.80
2018-06-30T14:47:28.800Z,2.63
2018-06-30T14:49:57.360Z,2.70
2018-06-30T14:52:25.898Z,2.50
2018-06-30T14:54:54.448Z,2.60
2018-06-30T14:57:22.980Z,2.50
2018-06-30T14:59:51.521Z,3.00
2018-06-30T15:02:20.056Z,2.80
2018-06-30T15:04:48.605Z,2.77
2018-06-30T15:07:17.132Z,2.67
2018-06-30T15:09:48.616Z,2.60
2018-06-30T15:12:17.129Z,2.83
2018-06-30T15:14:45.704Z,3.00
2018-06-30T15:17:14.264Z,3.00
2018-06-30T15:19:42.832Z,2.97
2018-06-30T15:22:11.360Z,3.30
2018-06-30T15:24:40.011Z,2.70
2018-06-30T15:27:08.522Z,2.83
2018-06-30T15:29:37.339Z,2.77
2018-06-30T15:32:06.309Z,2.73
2018-06-30T15:34:34.849Z,2.85
2018-06-30T15:37:03.505Z,2.73
2018-06-30T15:39:32.070Z,2.90
2018-06-30T15:42:00.697Z,2.97
2018-06-30T15:44:29.229Z,2.60
2018-06-30T15:46:57.789Z,2.90
2018-06-30T15:49:26.308Z,3.43
2018-06-30T15:51:58.714Z,2.93
2018-06-30T15:54:27.457Z,3.00
2018-06-30T15:56:56.964Z,2.80
2018-06-30T15:59:25.525Z,2.87
2018-06-30T16:01:54.249Z,2.70
2018-06-30T16:04:23.320Z,2.97
2018-06-30T16:06:51.861Z,2.90
2018-06-30T16:09:20.408Z,2.53
2018-06-30T16:11:48.960Z,2.90
2018-06-30T16:14:17.479Z,3.00
2018-06-30T16:16:46.049Z,2.80
2018-06-30T16:19:14.565Z,2.90
2018-06-30T16:21:43.697Z,2.97
2018-06-30T16:24:12.541Z,2.90
2018-06-30T16:26:43.194Z,3.00
2018-06-30T16:29:15.261Z,3.00
2018-06-30T16:31:44.580Z,3.30
2018-06-30T16:34:13.813Z,3.00
2018-06-30T16:36:42.371Z,3.07
2018-06-30T16:39:12.112Z,3.30
2018-06-30T16:41:40.740Z,3.20
2018-06-30T16:44:09.311Z,3.30
2018-06-30T16:46:38.321Z,3.70
2018-06-30T16:49:07.326Z,3.43
2018-06-30T16:51:35.908Z,3.00
2018-06-30T16:54:04.544Z,3.23
2018-06-30T16:56:33.104Z,3.22
2018-06-30T16:59:02.485Z,3.20
2018-06-30T17:01:31.093Z,3.07
2018-06-30T17:03:59.647Z,2.77
2018-06-30T17:06:28.293Z,3.30
2018-06-30T17:08:56.861Z,2.98
2018-06-30T17:11:25.473Z,3.27
2018-06-30T17:13:53.977Z,2.75
2018-06-30T17:16:22.524Z,2.90
2018-06-30T17:18:51.739Z,2.92
2018-06-30T17:21:28.602Z,3.10
2018-06-30T17:23:57.719Z,3.22
2018-06-30T17:26:29.304Z,2.90
2018-06-30T17:29:05.666Z,3.05
2018-06-30T17:31:35.481Z,2.77
2018-06-30T17:34:04.666Z,2.52
2018-06-30T17:36:33.267Z,2.60
2018-06-30T17:39:02.457Z,2.83
2018-06-30T17:41:31.025Z,2.93
2018-06-30T17:43:59.555Z,2.93
2018-06-30T17:46:28.105Z,2.98
2018-06-30T17:49:03.322Z,2.90
2018-06-30T17:51:31.892Z,3.00
2018-06-30T17:54:00.437Z,3.00
2018-06-30T17:56:28.953Z,3.02
2018-06-30T17:58:59.511Z,2.52
2018-06-30T18:01:37.764Z,3.00
2018-06-30T18:04:07.078Z,2.90
2018-06-30T18:06:37.361Z,6.73
2018-06-30T18:09:09.808Z,54.23
2018-06-30T18:11:38.972Z,220.88
2018-06-30T18:14:08.848Z,91.27
2018-06-30T18:16:38.200Z,142.22
2018-06-30T18:19:07.143Z,85.53
2018-06-30T18:21:41.514Z,103.27
2018-06-30T18:24:10.700Z,115.57
2018-06-30T18:26:39.914Z,50.37
2018-06-30T18:29:09.092Z,63.00
2018-06-30T18:31:38.419Z,31.27
2018-06-30T18:34:07.639Z,16.83
2018-06-30T18:36:36.745Z,12.88
2018-06-30T18:39:09.021Z,5.65
2018-06-30T18:41:38.237Z,4.05
2018-06-30T18:44:10.623Z,4.15
2018-06-30T18:46:39.891Z,3.87
2018-06-30T18:49:08.849Z,4.30
2018-06-30T18:51:38.316Z,3.57
2018-06-30T18:54:08.793Z,3.17
2018-06-30T18:56:38.141Z,3.00
2018-06-30T18:59:07.774Z,2.83
2018-06-30T19:01:37.317Z,3.45
2018-06-30T19:04:07.388Z,3.60
2018-06-30T19:06:36.800Z,4.00
2018-06-30T19:09:09.137Z,3.40
2018-06-30T19:11:38.593Z,4.07
2018-06-30T19:14:08.756Z,3.37
2018-06-30T19:16:38.143Z,3.80
2018-06-30T19:19:08.013Z,3.98
2018-06-30T19:21:36.885Z,3.67
2018-06-30T19:24:06.246Z,3.60
2018-06-30T19:26:35.414Z,3.58
2018-06-30T19:29:04.529Z,4.10
2018-06-30T19:31:44.260Z,3.95
2018-06-30T19:34:13.989Z,4.50
2018-06-30T19:36:43.245Z,4.17
2018-06-30T19:39:15.154Z,4.13
2018-06-30T19:41:49.220Z,4.30
2018-06-30T19:44:18.277Z,3.87
2018-06-30T19:46:46.790Z,4.30
2018-06-30T19:49:17.054Z,4.10
2018-06-30T19:51:45.918Z,4.60
2018-06-30T19:54:14.466Z,4.50
2018-06-30T19:56:42.993Z,4.87
2018-06-30T19:59:11.541Z,4.37
2018-06-30T20:01:40.061Z,4.80
2018-06-30T20:04:08.697Z,4.93
2018-06-30T20:06:37.217Z,5.00
2018-06-30T20:09:10.277Z,5.03
2018-06-30T20:11:38.810Z,4.30
2018-06-30T20:14:07.709Z,5.37
2018-06-30T20:16:36.269Z,5.10
2018-06-30T20:19:04.849Z,5.20
2018-06-30T20:21:33.403Z,5.20
2018-06-30T20:24:02.033Z,5.00
2018-06-30T20:26:30.637Z,5.27
2018-06-30T20:28:59.438Z,5.17
2018-06-30T20:31:27.973Z,5.20
2018-06-30T20:33:57.626Z,5.03
2018-06-30T20:36:26.645Z,4.73
2018-06-30T20:38:55.185Z,5.10
2018-06-30T20:41:24.649Z,5.13
2018-06-30T20:43:53.669Z,4.73
2018-06-30T20:46:22.185Z,4.90
2018-06-30T20:48:52.416Z,5.00
2018-06-30T20:51:21.044Z,4.67
2018-06-30T20:53:49.605Z,5.10
2018-06-30T20:56:20.208Z,4.60
2018-06-30T20:58:50.324Z,4.53
2018-06-30T21:01:19.030Z,4.37
2018-06-30T21:03:47.526Z,4.10
2018-06-30T21:06:17.279Z,4.30
2018-06-30T21:08:45.904Z,4.40
2018-06-30T21:11:14.787Z,4.70
2018-06-30T21:13:46.556Z,4.30
2018-06-30T21:16:16.257Z,4.30
2018-06-30T21:18:46.396Z,3.73
2018-06-30T21:21:15.078Z,3.87
2018-06-30T21:23:43.628Z,3.67
2018-06-30T21:26:12.198Z,3.43
2018-06-30T21:28:40.728Z,3.40
2018-06-30T21:31:09.285Z,3.60
2018-06-30T21:33:37.816Z,3.70
2018-06-30T21:36:06.397Z,3.70
2018-06-30T21:38:34.930Z,3.10
2018-06-30T21:41:03.520Z,3.37
2018-06-30T21:43:32.030Z,2.70
2018-06-30T21:46:00.583Z,3.10
2018-06-30T21:48:29.496Z,3.00
2018-06-30T21:50:58.048Z,2.80
2018-06-30T21:53:27.151Z,2.60
2018-06-30T21:56:01.287Z,2.53
2018-06-30T21:58:33.644Z,2.87
2018-06-30T22:01:09.597Z,2.53
2018-06-30T22:03:39.241Z,2.85
2018-06-30T22:06:09.214Z,2.50
2018-06-30T22:08:39.079Z,2.30
2018-06-30T22:11:08.650Z,2.40
2018-06-30T22:13:37.434Z,2.03
2018-06-30T22:16:07.618Z,2.10
2018-06-30T22:18:39.295Z,1.87
2018-06-30T22:21:12.123Z,2.00
2018-06-30T22:23:43.568Z,2.08
2018-06-30T22:26:14.506Z,2.00
2018-06-30T22:28:44.247Z,2.10
2018-06-30T22:31:14.944Z,2.13
2018-06-30T22:33:45.760Z,2.10
2018-06-30T22:36:15.624Z,1.60
2018-06-30T22:38:48.939Z,1.70
2018-06-30T22:41:18.388Z,1.73
2018-06-30T22:43:46.965Z,1.73
2018-06-30T22:46:18.474Z,1.73
2018-06-30T22:48:47.017Z,2.03
2018-06-30T22:51:15.620Z,1.60
2018-06-30T22:53:44.147Z,1.77
2018-06-30T22:56:13.345Z,1.37
2018-06-30T22:58:41.868Z,1.63
2018-06-30T23:01:10.568Z,1.40
2018-06-30T23:03:41.418Z,1.30
2018-06-30T23:06:10.117Z,1.30
2018-06-30T23:08:44.185Z,1.20
2018-06-30T23:11:12.757Z,1.20
2018-06-30T23:13:41.277Z,1.30
2018-06-30T23:16:09.826Z,1.30
2018-06-30T23:18:38.400Z,1.00
2018-06-30T23:21:06.956Z,1.23
2018-06-30T23:23:35.536Z,1.00
2018-06-30T23:26:04.085Z,1.10
2018-06-30T23:28:32.628Z,0.90
2018-06-30T23:31:01.159Z,0.90
2018-06-30T23:33:29.704Z,0.80
2018-06-30T23:35:58.240Z,0.90
2018-06-30T23:38:26.961Z,1.07
2018-06-30T23:40:55.513Z,1.07
2018-06-30T23:43:24.133Z,0.90
2018-06-30T23:45:52.648Z,1.00
2018-06-30T23:48:21.204Z,1.20
2018-06-30T23:50:49.713Z,0.90
2018-06-30T23:53:18.256Z,1.30
2018-06-30T23:55:46.848Z,0.80
2018-06-30T23:58:15.388Z,1.17
